createdAt,value
2017-11-19T00:01:54.079Z,94.90
2017-11-19T00:04:21.554Z,94.90
2017-11-19T00:06:49.836Z,95.10
2017-11-19T00:09:18.089Z,95.10
2017-11-19T00:11:45.666Z,95.10
2017-11-19T00:14:13.950Z,94.80
2017-11-19T00:16:42.174Z,94.50
2017-11-19T00:19:09.637Z,94.50
2017-11-19T00:21:37.274Z,94.40
2017-11-19T00:24:04.755Z,94.50
2017-11-19T00:26:32.243Z,94.80
2017-11-19T00:29:00.483Z,94.60
2017-11-19T00:31:27.962Z,94.60
2017-11-19T00:33:55.434Z,94.10
2017-11-19T00:36:23.678Z,93.90
2017-11-19T00:38:51.614Z,93.90
2017-11-19T00:41:19.234Z,93.40
2017-11-19T00:43:47.516Z,92.50
2017-11-19T00:46:15.798Z,92.60
2017-11-19T00:48:44.157Z,92.70
2017-11-19T00:51:11.613Z,92.70
2017-11-19T00:53:39.087Z,92.90
2017-11-19T00:56:07.947Z,93.30
2017-11-19T00:58:35.423Z,93.30
2017-11-19T01:01:03.741Z,93.60
2017-11-19T01:03:31.264Z,93.70
2017-11-19T01:05:59.582Z,94.30
2017-11-19T01:08:27.075Z,94.30
2017-11-19T01:10:54.539Z,94.50
2017-11-19T01:13:22.014Z,94.50
2017-11-19T01:15:50.238Z,94.70
2017-11-19T01:18:17.710Z,94.80
2017-11-19T01:20:45.172Z,94.60
2017-11-19T01:23:12.626Z,94.70
2017-11-19T01:25:40.124Z,94.80
2017-11-19T01:28:07.542Z,94.40
2017-11-19T01:30:36.533Z,93.60
2017-11-19T01:33:03.989Z,93.60
2017-11-19T01:35:31.450Z,93.20
2017-11-19T01:37:58.918Z,93.20
2017-11-19T01:40:26.381Z,93.20
2017-11-19T01:42:54.610Z,93.50
2017-11-19T01:45:22.101Z,93.50
2017-11-19T01:47:49.579Z,93.60
2017-11-19T01:52:51.626Z,93.50
2017-11-19T01:55:19.081Z,93.60
2017-11-19T01:57:46.563Z,93.90
2017-11-19T02:00:14.800Z,94.00
2017-11-19T02:02:42.261Z,94.00
2017-11-19T02:05:09.730Z,93.90
2017-11-19T02:07:37.186Z,93.70
2017-11-19T02:10:04.645Z,93.80
2017-11-19T02:12:32.101Z,93.80
2017-11-19T02:14:59.573Z,93.90
2017-11-19T02:17:27.032Z,93.90
2017-11-19T02:19:54.491Z,94.00
2017-11-19T02:22:22.707Z,93.80
2017-11-19T02:24:50.177Z,93.80
2017-11-19T02:27:17.670Z,93.90
2017-11-19T02:29:45.137Z,93.90
2017-11-19T02:32:13.428Z,93.00
2017-11-19T02:34:41.642Z,93.30
2017-11-19T02:37:09.318Z,93.30
2017-11-19T02:39:36.786Z,93.30
2017-11-19T02:42:04.237Z,93.20
2017-11-19T02:44:31.715Z,93.10
2017-11-19T02:46:59.167Z,93.00
2017-11-19T02:49:27.433Z,93.40
2017-11-19T02:51:54.902Z,93.20
2017-11-19T02:54:22.359Z,93.20
2017-11-19T02:56:49.947Z,93.30
2017-11-19T02:59:17.402Z,93.20
2017-11-19T03:01:44.892Z,93.00
2017-11-19T03:04:12.350Z,93.20
2017-11-19T03:06:39.790Z,93.50
2017-11-19T03:09:07.266Z,93.70
2017-11-19T03:11:34.711Z,93.80
2017-11-19T03:14:02.169Z,93.90
2017-11-19T03:16:29.678Z,93.80
2017-11-19T03:18:57.137Z,93.80
2017-11-19T03:21:25.353Z,93.70
2017-11-19T03:23:52.813Z,93.60
2017-11-19T03:26:20.264Z,93.30
2017-11-19T03:28:47.757Z,93.60
2017-11-19T03:31:15.221Z,93.50
2017-11-19T03:33:42.677Z,93.30
2017-11-19T03:36:11.663Z,93.40
2017-11-19T03:38:39.110Z,93.40
2017-11-19T03:41:07.251Z,93.40
2017-11-19T03:43:34.709Z,93.50
2017-11-19T03:46:02.723Z,93.10
2017-11-19T03:48:30.184Z,93.10
2017-11-19T03:50:57.677Z,93.20
2017-11-19T03:53:25.885Z,93.20
2017-11-19T03:55:53.352Z,93.20
2017-11-19T03:58:21.458Z,93.20
2017-11-19T04:00:49.685Z,93.10
2017-11-19T04:03:17.142Z,93.10
2017-11-19T04:05:44.591Z,92.70
2017-11-19T04:08:12.254Z,92.60
2017-11-19T04:10:39.694Z,92.60
2017-11-19T04:13:07.171Z,92.50
2017-11-19T04:15:34.638Z,92.50
2017-11-19T04:18:02.110Z,92.30
2017-11-19T04:20:29.567Z,92.20
2017-11-19T04:22:57.024Z,92.10
2017-11-19T04:25:24.483Z,92.10
2017-11-19T04:27:51.947Z,92.20
2017-11-19T04:30:19.421Z,92.10
2017-11-19T04:32:47.657Z,92.20
2017-11-19T04:35:15.213Z,92.20
2017-11-19T04:37:42.674Z,92.40
2017-11-19T04:40:10.146Z,92.30
2017-11-19T04:42:37.616Z,92.30
2017-11-19T04:45:05.088Z,92.50
2017-11-19T04:47:33.314Z,92.50
2017-11-19T04:50:00.778Z,92.50
2017-11-19T04:52:28.313Z,92.50
2017-11-19T04:54:55.768Z,92.50
2017-11-19T04:57:23.265Z,92.40
2017-11-19T04:59:50.737Z,92.40
2017-11-19T05:02:19.734Z,92.40
2017-11-19T05:04:47.954Z,92.50
2017-11-19T05:07:15.408Z,92.40
2017-11-19T05:09:42.884Z,92.50
2017-11-19T05:12:10.352Z,92.50
2017-11-19T05:14:37.813Z,92.60
2017-11-19T05:17:05.276Z,92.40
2017-11-19T05:19:32.830Z,92.40
2017-11-19T05:22:01.797Z,92.50
2017-11-19T05:24:29.257Z,92.50
2017-11-19T05:26:56.764Z,92.40
2017-11-19T05:29:25.010Z,92.80
2017-11-19T05:31:52.461Z,92.50
2017-11-19T05:34:19.917Z,92.40
2017-11-19T05:36:47.482Z,92.10
2017-11-19T05:39:14.936Z,92.20
2017-11-19T05:41:42.397Z,92.00
2017-11-19T05:44:10.842Z,91.50
2017-11-19T05:46:38.298Z,91.60
2017-11-19T05:49:05.751Z,91.40
2017-11-19T05:51:33.206Z,91.60
2017-11-19T05:54:00.666Z,91.50
2017-11-19T05:56:28.153Z,91.40
2017-11-19T05:58:55.616Z,91.60
2017-11-19T06:01:23.084Z,91.60
2017-11-19T06:03:50.546Z,91.60
2017-11-19T06:06:18.794Z,91.50
2017-11-19T06:08:46.246Z,91.50
2017-11-19T06:11:13.699Z,91.60
2017-11-19T06:13:41.158Z,91.60
2017-11-19T06:16:08.614Z,91.50
2017-11-19T06:18:36.087Z,91.50
2017-11-19T06:21:03.538Z,91.60
2017-11-19T06:23:31.000Z,91.90
2017-11-19T06:25:58.478Z,92.00
2017-11-19T06:28:26.705Z,92.00
2017-11-19T06:30:54.265Z,92.00
2017-11-19T06:33:21.721Z,91.90
2017-11-19T06:35:49.189Z,91.70
2017-11-19T06:38:16.653Z,91.60
2017-11-19T06:40:44.136Z,91.90
2017-11-19T06:43:12.169Z,91.70
2017-11-19T06:45:39.630Z,91.90
2017-11-19T06:48:07.098Z,91.60
2017-11-19T06:50:34.661Z,91.90
2017-11-19T06:53:02.126Z,92.00
2017-11-19T06:55:29.572Z,92.30
2017-11-19T06:57:57.034Z,91.80
2017-11-19T07:00:24.481Z,91.90
2017-11-19T07:02:51.957Z,92.00
2017-11-19T07:05:19.414Z,91.90
2017-11-19T07:07:47.062Z,91.90
2017-11-19T07:10:14.529Z,92.00
2017-11-19T07:12:41.977Z,91.90
2017-11-19T07:15:09.430Z,91.50
2017-11-19T07:17:38.406Z,91.60
2017-11-19T07:20:05.854Z,91.60
2017-11-19T07:22:33.317Z,91.70
2017-11-19T07:25:00.776Z,91.70
2017-11-19T07:27:28.233Z,91.90
2017-11-19T07:29:55.789Z,91.60
2017-11-19T07:32:23.732Z,91.70
2017-11-19T07:34:51.182Z,91.70
2017-11-19T07:37:18.652Z,91.80
2017-11-19T07:39:46.192Z,91.60
2017-11-19T07:42:13.689Z,91.70
2017-11-19T07:44:41.154Z,91.70
2017-11-19T07:47:08.638Z,91.90
2017-11-19T07:49:36.999Z,91.90
2017-11-19T07:52:04.508Z,91.90
2017-11-19T07:54:31.970Z,92.00
2017-11-19T07:56:59.576Z,92.10
2017-11-19T07:59:27.212Z,92.20
2017-11-19T08:01:54.653Z,92.10
2017-11-19T08:04:22.109Z,92.10
2017-11-19T08:06:49.666Z,92.20
2017-11-19T08:09:17.133Z,92.10
2017-11-19T08:11:44.595Z,91.80
2017-11-19T08:14:12.073Z,91.90
2017-11-19T08:16:39.530Z,92.00
2017-11-19T08:19:07.033Z,92.30
2017-11-19T08:21:34.605Z,91.90
2017-11-19T08:24:02.098Z,91.80
2017-11-19T08:26:30.397Z,91.50
2017-11-19T08:28:57.852Z,91.50
2017-11-19T08:31:25.309Z,90.80
2017-11-19T08:33:52.806Z,90.90
2017-11-19T08:36:21.038Z,90.80
2017-11-19T08:38:48.493Z,90.80
2017-11-19T08:41:15.958Z,90.40
2017-11-19T08:43:44.216Z,90.90
2017-11-19T08:46:11.683Z,90.60
2017-11-19T08:48:39.234Z,90.10
2017-11-19T08:51:06.688Z,89.30
2017-11-19T08:53:34.160Z,88.60
2017-11-19T08:56:01.622Z,87.90
2017-11-19T08:58:29.951Z,88.50
2017-11-19T09:00:57.417Z,87.90
2017-11-19T09:03:24.877Z,88.20
2017-11-19T09:05:52.354Z,88.80
2017-11-19T09:08:19.868Z,88.80
2017-11-19T09:10:47.329Z,89.40
2017-11-19T09:13:14.986Z,90.10
2017-11-19T09:15:42.457Z,90.00
2017-11-19T09:18:09.950Z,90.20
2017-11-19T09:20:37.495Z,90.10
2017-11-19T09:23:04.958Z,90.00
2017-11-19T09:25:32.451Z,90.00
2017-11-19T09:27:59.929Z,88.60
2017-11-19T09:30:27.386Z,86.10
2017-11-19T09:32:54.930Z,84.10
2017-11-19T09:35:22.514Z,82.50
2017-11-19T09:37:49.961Z,83.10
2017-11-19T09:40:17.442Z,84.60
2017-11-19T09:42:45.029Z,86.60
2017-11-19T09:45:12.477Z,87.70
2017-11-19T09:47:39.933Z,87.60
2017-11-19T09:50:07.451Z,88.50
2017-11-19T09:52:34.902Z,89.60
2017-11-19T09:55:02.403Z,87.40
2017-11-19T09:57:30.621Z,85.90
2017-11-19T09:59:58.311Z,85.90
2017-11-19T10:02:25.808Z,85.50
2017-11-19T10:04:53.376Z,84.60
2017-11-19T10:07:21.666Z,86.70
2017-11-19T10:09:49.805Z,86.40
2017-11-19T10:12:18.739Z,86.10
2017-11-19T10:14:46.966Z,85.00
2017-11-19T10:17:14.501Z,85.00
2017-11-19T10:19:42.565Z,84.50
2017-11-19T10:22:10.076Z,85.00
2017-11-19T10:24:38.321Z,83.80
2017-11-19T10:27:05.775Z,83.80
2017-11-19T10:29:33.254Z,83.40
2017-11-19T10:32:00.825Z,82.10
2017-11-19T10:34:29.082Z,79.90
2017-11-19T10:36:56.565Z,79.80
2017-11-19T10:39:24.822Z,79.50
2017-11-19T10:41:52.281Z,79.50
2017-11-19T10:44:20.525Z,79.10
2017-11-19T10:46:48.135Z,79.00
2017-11-19T10:49:16.396Z,79.80
2017-11-19T10:51:43.906Z,79.80
2017-11-19T10:54:11.485Z,80.40
2017-11-19T10:56:38.976Z,82.30
2017-11-19T10:59:07.252Z,82.70
2017-11-19T11:01:35.521Z,82.70
2017-11-19T11:04:04.160Z,81.80
2017-11-19T11:06:31.733Z,81.80
2017-11-19T11:08:59.590Z,83.90
2017-11-19T11:11:27.388Z,83.80
2017-11-19T11:13:55.026Z,84.20
2017-11-19T11:16:22.641Z,82.70
2017-11-19T11:18:50.980Z,85.00
2017-11-19T11:21:19.330Z,82.80
2017-11-19T11:23:46.966Z,82.70
2017-11-19T11:26:14.463Z,82.40
2017-11-19T11:28:42.116Z,82.20
2017-11-19T11:31:09.615Z,82.90
2017-11-19T11:33:38.027Z,83.30
2017-11-19T11:36:05.714Z,83.30
2017-11-19T11:38:33.210Z,83.00
2017-11-19T11:41:00.676Z,83.20
2017-11-19T11:43:28.185Z,83.90
2017-11-19T11:45:55.675Z,84.50
2017-11-19T11:48:23.192Z,84.70
2017-11-19T11:50:50.652Z,85.20
2017-11-19T11:53:18.316Z,84.30
2017-11-19T11:55:45.802Z,83.70
2017-11-19T11:58:14.805Z,83.70
2017-11-19T12:00:43.111Z,83.70
2017-11-19T12:03:10.827Z,83.70
2017-11-19T12:05:38.374Z,83.70
2017-11-19T12:08:06.042Z,83.30
2017-11-19T12:10:33.691Z,83.40
2017-11-19T12:13:01.155Z,82.90
2017-11-19T12:15:28.630Z,83.60
2017-11-19T12:17:56.891Z,84.50
2017-11-19T12:20:24.448Z,83.10
2017-11-19T12:22:51.930Z,83.50
2017-11-19T12:25:19.409Z,83.20
2017-11-19T12:27:47.665Z,82.90
2017-11-19T12:30:15.920Z,81.50
2017-11-19T12:32:43.689Z,82.00
2017-11-19T12:35:11.166Z,81.70
2017-11-19T12:37:39.396Z,82.50
2017-11-19T12:40:06.886Z,82.30
2017-11-19T12:42:34.357Z,82.30
2017-11-19T12:45:02.592Z,82.80
2017-11-19T12:47:30.067Z,82.80
2017-11-19T12:49:58.322Z,83.10
2017-11-19T12:52:26.138Z,82.90
2017-11-19T12:54:53.627Z,83.40
2017-11-19T12:57:21.183Z,86.10
2017-11-19T12:59:50.898Z,89.10
2017-11-19T13:02:18.591Z,89.60
2017-11-19T13:04:46.075Z,89.70
2017-11-19T13:07:14.311Z,89.60
2017-11-19T13:09:41.785Z,89.60
2017-11-19T13:12:09.439Z,89.60
2017-11-19T13:14:36.934Z,89.50
2017-11-19T13:17:05.165Z,88.70
2017-11-19T13:19:32.804Z,88.70
2017-11-19T13:22:00.281Z,88.70
2017-11-19T13:24:27.768Z,87.10
2017-11-19T13:26:55.245Z,86.80
2017-11-19T13:29:22.736Z,86.40
2017-11-19T13:31:50.229Z,84.30
2017-11-19T13:34:18.491Z,83.70
2017-11-19T13:36:46.079Z,83.70
2017-11-19T13:39:14.457Z,80.60
2017-11-19T13:41:46.931Z,81.20
2017-11-19T13:44:14.639Z,81.10
2017-11-19T13:46:42.088Z,81.30
2017-11-19T13:49:09.552Z,80.50
2017-11-19T13:51:37.066Z,81.10
2017-11-19T13:54:05.303Z,82.30
2017-11-19T13:56:32.760Z,82.20
2017-11-19T13:59:00.230Z,82.70
2017-11-19T14:01:27.697Z,82.90
2017-11-19T14:03:55.168Z,83.70
2017-11-19T14:06:23.403Z,83.20
2017-11-19T14:08:50.863Z,83.20
2017-11-19T14:11:19.161Z,81.70
2017-11-19T14:13:46.621Z,81.90
2017-11-19T14:16:14.242Z,81.10
2017-11-19T14:18:41.707Z,80.90
2017-11-19T14:21:09.228Z,80.50
2017-11-19T14:23:36.731Z,81.70
2017-11-19T14:26:04.798Z,82.30
2017-11-19T14:28:32.255Z,82.00
2017-11-19T14:30:59.718Z,83.20
2017-11-19T14:33:27.192Z,84.20
2017-11-19T14:35:54.883Z,84.30
2017-11-19T14:38:22.363Z,85.00
2017-11-19T14:40:49.850Z,85.80
2017-11-19T14:43:17.318Z,86.20
2017-11-19T14:45:44.863Z,86.20
2017-11-19T14:48:12.426Z,86.40
2017-11-19T14:50:39.890Z,86.70
2017-11-19T14:53:08.268Z,88.10
2017-11-19T14:55:35.719Z,88.00
2017-11-19T14:58:03.201Z,90.10
2017-11-19T15:00:31.414Z,91.40
2017-11-19T15:02:58.889Z,91.30
2017-11-19T15:05:26.341Z,92.20
2017-11-19T15:07:53.818Z,91.90
2017-11-19T15:10:22.145Z,91.90
2017-11-19T15:12:49.624Z,92.10
2017-11-19T15:15:17.109Z,92.40
2017-11-19T15:17:44.584Z,92.70
2017-11-19T15:20:12.037Z,93.20
2017-11-19T15:22:39.496Z,92.50
2017-11-19T15:25:06.976Z,92.70
2017-11-19T15:27:35.192Z,91.80
2017-11-19T15:30:02.662Z,91.80
2017-11-19T15:32:30.139Z,91.90
2017-11-19T15:34:57.610Z,91.50
2017-11-19T15:37:26.759Z,91.60
2017-11-19T15:39:54.230Z,91.70
2017-11-19T15:42:21.702Z,91.60
2017-11-19T15:44:49.343Z,91.60
2017-11-19T15:47:16.816Z,91.70
2017-11-19T15:49:44.278Z,91.40
2017-11-19T15:52:11.737Z,91.50
2017-11-19T15:54:39.258Z,91.30
2017-11-19T15:57:06.742Z,91.20
2017-11-19T15:59:34.320Z,91.00
2017-11-19T16:02:02.738Z,91.10
2017-11-19T16:04:30.223Z,91.10
2017-11-19T16:06:57.687Z,91.00
2017-11-19T16:09:25.150Z,90.40
2017-11-19T16:11:52.621Z,90.40
2017-11-19T16:14:20.081Z,90.50
2017-11-19T16:16:47.542Z,90.60
2017-11-19T16:19:15.009Z,90.60
2017-11-19T16:21:43.251Z,90.40
2017-11-19T16:24:10.714Z,90.40
2017-11-19T16:26:38.193Z,90.70
2017-11-19T16:29:06.428Z,90.30
2017-11-19T16:31:33.910Z,90.30
2017-11-19T16:34:01.354Z,90.40
2017-11-19T16:36:28.829Z,90.80
2017-11-19T16:38:56.275Z,90.80
2017-11-19T16:41:23.831Z,91.10
2017-11-19T16:43:51.286Z,91.20
2017-11-19T16:46:18.888Z,91.10
2017-11-19T16:48:46.353Z,90.80
2017-11-19T16:51:13.819Z,91.20
2017-11-19T16:53:41.290Z,91.20
2017-11-19T16:56:08.750Z,90.70
2017-11-19T16:58:36.230Z,90.50
2017-11-19T17:01:03.678Z,90.70
2017-11-19T17:03:31.770Z,90.50
2017-11-19T17:05:59.229Z,90.50
2017-11-19T17:08:26.690Z,90.50
2017-11-19T17:10:54.914Z,90.50
2017-11-19T17:13:22.383Z,90.40
2017-11-19T17:15:49.852Z,90.60
2017-11-19T17:18:17.332Z,90.70
2017-11-19T17:20:44.923Z,90.60
2017-11-19T17:23:12.445Z,90.10
2017-11-19T17:25:39.893Z,90.10
2017-11-19T17:28:08.166Z,90.70
2017-11-19T17:30:35.636Z,90.70
2017-11-19T17:33:03.101Z,90.70
2017-11-19T17:35:31.335Z,90.90
2017-11-19T17:37:58.803Z,90.80
2017-11-19T17:40:26.274Z,91.60
2017-11-19T17:42:53.733Z,91.30
2017-11-19T17:45:21.249Z,91.00
2017-11-19T17:47:48.707Z,90.60
2017-11-19T17:50:16.306Z,90.70
2017-11-19T17:52:43.799Z,91.00
2017-11-19T17:55:11.282Z,91.30
2017-11-19T17:57:38.812Z,91.10
2017-11-19T18:00:07.014Z,91.40
2017-11-19T18:02:34.592Z,91.40
2017-11-19T18:05:02.078Z,91.20
2017-11-19T18:07:29.556Z,91.10
2017-11-19T18:09:57.863Z,91.40
2017-11-19T18:12:25.394Z,91.40
2017-11-19T18:14:53.617Z,91.50
2017-11-19T18:17:21.105Z,91.50
2017-11-19T18:19:48.573Z,91.70
2017-11-19T18:22:16.841Z,91.70
2017-11-19T18:24:45.093Z,91.90
2017-11-19T18:27:12.601Z,91.90
2017-11-19T18:29:40.098Z,91.70
2017-11-19T18:32:07.577Z,91.60
2017-11-19T18:34:35.116Z,91.70
2017-11-19T18:37:02.673Z,91.80
2017-11-19T18:39:30.149Z,92.00
2017-11-19T18:41:59.250Z,92.00
2017-11-19T18:44:27.475Z,92.10
2017-11-19T18:46:54.970Z,91.90
2017-11-19T18:49:22.452Z,91.70
2017-11-19T18:51:50.673Z,91.80
2017-11-19T18:54:18.150Z,91.70
2017-11-19T18:56:45.688Z,91.80
2017-11-19T18:59:13.989Z,91.80
2017-11-19T19:01:41.517Z,91.80
2017-11-19T19:04:08.991Z,92.00
2017-11-19T19:06:36.460Z,92.10
2017-11-19T19:09:03.931Z,92.30
2017-11-19T19:11:31.385Z,92.30
2017-11-19T19:13:58.850Z,92.20
2017-11-19T19:16:27.075Z,92.40
2017-11-19T19:18:54.646Z,92.30
2017-11-19T19:21:22.113Z,92.20
2017-11-19T19:23:49.594Z,92.10
2017-11-19T19:26:17.078Z,92.40
2017-11-19T19:28:44.569Z,92.50
2017-11-19T19:31:12.034Z,92.10
2017-11-19T19:33:39.505Z,92.20
2017-11-19T19:36:07.083Z,92.10
2017-11-19T19:38:36.243Z,92.00
2017-11-19T19:41:03.701Z,92.00
2017-11-19T19:43:31.194Z,92.20
2017-11-19T19:45:58.772Z,92.40
2017-11-19T19:48:27.016Z,92.40
2017-11-19T19:50:54.486Z,92.40
2017-11-19T19:53:22.138Z,92.40
2017-11-19T19:55:49.622Z,92.30
2017-11-19T19:58:17.854Z,92.10
2017-11-19T20:00:45.338Z,92.20
2017-11-19T20:03:12.808Z,92.20
2017-11-19T20:05:41.073Z,92.40
2017-11-19T20:08:08.525Z,92.40
2017-11-19T20:10:36.772Z,92.40
2017-11-19T20:13:04.437Z,92.10
2017-11-19T20:15:31.901Z,92.30
2017-11-19T20:17:59.488Z,92.40
2017-11-19T20:20:26.935Z,92.10
2017-11-19T20:22:55.178Z,91.80
2017-11-19T20:25:22.646Z,92.00
2017-11-19T20:27:50.145Z,92.20
2017-11-19T20:30:18.439Z,92.10
2017-11-19T20:32:45.965Z,92.10
2017-11-19T20:35:14.240Z,92.00
2017-11-19T20:37:41.773Z,92.00
2017-11-19T20:40:09.222Z,91.90
2017-11-19T20:42:36.710Z,91.70
2017-11-19T20:45:04.243Z,91.60
2017-11-19T20:47:31.718Z,92.00
2017-11-19T20:49:59.199Z,91.90
2017-11-19T20:52:27.459Z,92.10
2017-11-19T20:54:55.700Z,92.20
2017-11-19T20:57:23.199Z,92.10
2017-11-19T20:59:51.154Z,92.20
2017-11-19T21:02:18.626Z,92.30
2017-11-19T21:04:46.880Z,92.40
2017-11-19T21:07:14.354Z,92.40
2017-11-19T21:09:42.614Z,92.40
2017-11-19T21:12:10.184Z,92.30
2017-11-19T21:14:38.444Z,92.40
2017-11-19T21:17:07.886Z,92.40
2017-11-19T21:19:35.417Z,92.40
2017-11-19T21:22:03.013Z,92.40
2017-11-19T21:24:30.493Z,92.40
2017-11-19T21:26:57.997Z,92.30
2017-11-19T21:29:25.501Z,92.30
2017-11-19T21:31:53.032Z,92.40
2017-11-19T21:34:20.618Z,92.40
2017-11-19T21:36:48.113Z,92.40
2017-11-19T21:39:15.582Z,92.40
2017-11-19T21:41:43.055Z,92.20
2017-11-19T21:44:10.641Z,92.40
2017-11-19T21:46:38.262Z,92.40
2017-11-19T21:49:06.611Z,92.30
2017-11-19T21:51:34.126Z,92.30
2017-11-19T21:54:01.660Z,92.30
2017-11-19T21:56:29.899Z,92.40
2017-11-19T22:01:31.355Z,92.20
2017-11-19T22:03:58.832Z,92.10
2017-11-19T22:06:26.286Z,92.20
2017-11-19T22:08:53.955Z,92.20
2017-11-19T22:11:21.984Z,92.20
2017-11-19T22:13:49.490Z,92.30
2017-11-19T22:16:16.961Z,92.20
2017-11-19T22:18:45.917Z,92.30
2017-11-19T22:21:13.629Z,92.30
2017-11-19T22:23:41.869Z,92.20
2017-11-19T22:26:09.395Z,92.20
2017-11-19T22:28:36.915Z,92.20
2017-11-19T22:31:05.293Z,92.00
2017-11-19T22:33:34.306Z,92.10
2017-11-19T22:36:01.790Z,92.10
2017-11-19T22:38:30.906Z,92.30
2017-11-19T22:40:58.408Z,92.30
2017-11-19T22:43:25.883Z,92.30
2017-11-19T22:45:53.378Z,92.20
2017-11-19T22:48:20.862Z,92.30
2017-11-19T22:50:49.087Z,92.40
2017-11-19T22:53:16.555Z,92.40
2017-11-19T22:55:44.415Z,92.50
2017-11-19T22:58:11.930Z,92.50
2017-11-19T23:00:39.395Z,92.60
2017-11-19T23:03:06.883Z,92.70
2017-11-19T23:05:34.417Z,92.50
2017-11-19T23:08:01.909Z,92.60
2017-11-19T23:10:29.528Z,92.90
2017-11-19T23:12:56.993Z,92.90
2017-11-19T23:15:24.459Z,92.80
2017-11-19T23:17:52.082Z,92.90
2017-11-19T23:20:20.330Z,93.10
2017-11-19T23:22:47.858Z,93.10
2017-11-19T23:25:15.400Z,92.90
2017-11-19T23:27:42.926Z,92.90
2017-11-19T23:30:11.207Z,92.90
2017-11-19T23:32:39.537Z,92.90
2017-11-19T23:35:07.007Z,92.80
2017-11-19T23:37:34.458Z,92.60
2017-11-19T23:40:02.135Z,92.40
2017-11-19T23:42:29.598Z,92.60
2017-11-19T23:44:57.065Z,92.60
2017-11-19T23:47:24.589Z,92.50
2017-11-19T23:49:52.078Z,92.50
2017-11-19T23:52:19.603Z,92.50
2017-11-19T23:54:47.133Z,92.60
2017-11-19T23:57:14.713Z,92.60
2017-11-19T23:59:42.178Z,92.50
